sensor_id;sensor_type;location;lat;lon;timestamp;P1;durP1;ratioP1;P2;durP2;ratioP2
8819;SDS011;4446;50.876;4.736;2022-08-19T00:01:49;16.83;;;15.30;;
8819;SDS011;4446;50.876;4.736;2022-08-19T00:04:18;16.48;;;14.88;;
8819;SDS011;4446;50.876;4.736;2022-08-19T00:06:47;16.00;;;14.20;;
8819;SDS011;4446;50.876;4.736;2022-08-19T00:09:15;17.77;;;16.05;;
8819;SDS011;4446;50.876;4.736;2022-08-19T00:11:44;19.58;;;16.70;;
8819;SDS011;4446;50.876;4.736;2022-08-19T00:14:14;17.95;;;16.17;;
8819;SDS011;4446;50.876;4.736;2022-08-19T00:16:42;17.63;;;15.93;;
8819;SDS011;4446;50.876;4.736;2022-08-19T00:19:11;17.13;;;15.43;;
8819;SDS011;4446;50.876;4.736;2022-08-19T00:21:38;19.70;;;17.80;;
8819;SDS011;4446;50.876;4.736;2022-08-19T00:24:06;19.33;;;16.88;;
8819;SDS011;4446;50.876;4.736;2022-08-19T00:26:34;19.20;;;17.30;;
8819;SDS011;4446;50.876;4.736;2022-08-19T00:29:02;18.88;;;17.00;;
8819;SDS011;4446;50.876;4.736;2022-08-19T00:31:31;20.23;;;18.13;;
8819;SDS011;4446;50.876;4.736;2022-08-19T00:33:58;20.05;;;18.15;;
8819;SDS011;4446;50.876;4.736;2022-08-19T00:36:26;21.70;;;17.63;;
8819;SDS011;4446;50.876;4.736;2022-08-19T00:38:53;20.48;;;18.30;;
8819;SDS011;4446;50.876;4.736;2022-08-19T00:41:21;20.05;;;17.75;;
8819;SDS011;4446;50.876;4.736;2022-08-19T00:43:57;21.20;;;17.67;;
8819;SDS011;4446;50.876;4.736;2022-08-19T00:46:25;20.98;;;18.83;;
8819;SDS011;4446;50.876;4.736;2022-08-19T00:48:54;20.92;;;18.45;;
8819;SDS011;4446;50.876;4.736;2022-08-19T00:51:22;20.67;;;18.50;;
8819;SDS011;4446;50.876;4.736;2022-08-19T00:53:51;22.67;;;20.27;;
8819;SDS011;4446;50.876;4.736;2022-08-19T00:56:19;23.23;;;20.73;;
8819;SDS011;4446;50.876;4.736;2022-08-19T00:58:47;27.20;;;21.48;;
8819;SDS011;4446;50.876;4.736;2022-08-19T01:01:14;26.60;;;20.08;;
8819;SDS011;4446;50.876;4.736;2022-08-19T01:03:41;29.17;;;23.52;;
8819;SDS011;4446;50.876;4.736;2022-08-19T01:06:10;26.83;;;21.75;;
8819;SDS011;4446;50.876;4.736;2022-08-19T01:08:37;32.72;;;25.00;;
8819;SDS011;4446;50.876;4.736;2022-08-19T01:11:04;34.83;;;26.95;;
8819;SDS011;4446;50.876;4.736;2022-08-19T01:13:32;33.83;;;27.25;;
8819;SDS011;4446;50.876;4.736;2022-08-19T01:16:00;32.83;;;26.50;;
8819;SDS011;4446;50.876;4.736;2022-08-19T01:18:30;35.15;;;26.00;;
8819;SDS011;4446;50.876;4.736;2022-08-19T01:20:59;32.88;;;26.85;;
8819;SDS011;4446;50.876;4.736;2022-08-19T01:23:35;35.35;;;27.05;;
8819;SDS011;4446;50.876;4.736;2022-08-19T01:26:20;38.65;;;26.88;;
8819;SDS011;4446;50.876;4.736;2022-08-19T01:28:50;36.13;;;27.80;;
8819;SDS011;4446;50.876;4.736;2022-08-19T01:31:20;37.60;;;28.02;;
8819;SDS011;4446;50.876;4.736;2022-08-19T01:33:49;39.35;;;30.17;;
8819;SDS011;4446;50.876;4.736;2022-08-19T01:36:21;44.20;;;31.15;;
8819;SDS011;4446;50.876;4.736;2022-08-19T01:38:52;40.85;;;28.27;;
8819;SDS011;4446;50.876;4.736;2022-08-19T01:41:19;42.38;;;29.23;;
8819;SDS011;4446;50.876;4.736;2022-08-19T01:43:48;43.47;;;30.88;;
8819;SDS011;4446;50.876;4.736;2022-08-19T01:46:16;45.75;;;32.17;;
8819;SDS011;4446;50.876;4.736;2022-08-19T01:48:43;45.10;;;31.15;;
8819;SDS011;4446;50.876;4.736;2022-08-19T01:51:11;41.53;;;29.35;;
8819;SDS011;4446;50.876;4.736;2022-08-19T01:53:39;33.63;;;26.30;;
8819;SDS011;4446;50.876;4.736;2022-08-19T01:56:08;35.63;;;26.33;;
8819;SDS011;4446;50.876;4.736;2022-08-19T01:58:36;34.72;;;26.17;;
8819;SDS011;4446;50.876;4.736;2022-08-19T02:01:07;36.72;;;26.67;;
8819;SDS011;4446;50.876;4.736;2022-08-19T02:03:35;38.15;;;27.48;;
8819;SDS011;4446;50.876;4.736;2022-08-19T02:06:02;39.92;;;27.92;;
8819;SDS011;4446;50.876;4.736;2022-08-19T02:08:31;39.60;;;27.83;;
8819;SDS011;4446;50.876;4.736;2022-08-19T02:11:00;44.55;;;31.45;;
8819;SDS011;4446;50.876;4.736;2022-08-19T02:13:30;44.70;;;29.88;;
8819;SDS011;4446;50.876;4.736;2022-08-19T02:15:58;48.22;;;31.55;;
8819;SDS011;4446;50.876;4.736;2022-08-19T02:18:25;42.58;;;30.23;;
8819;SDS011;4446;50.876;4.736;2022-08-19T02:20:53;52.30;;;34.03;;
8819;SDS011;4446;50.876;4.736;2022-08-19T02:23:20;52.08;;;33.72;;
8819;SDS011;4446;50.876;4.736;2022-08-19T02:25:47;47.17;;;30.60;;
8819;SDS011;4446;50.876;4.736;2022-08-19T02:28:15;50.95;;;34.17;;
8819;SDS011;4446;50.876;4.736;2022-08-19T02:30:43;52.42;;;34.53;;
8819;SDS011;4446;50.876;4.736;2022-08-19T02:33:11;49.42;;;32.55;;
8819;SDS011;4446;50.876;4.736;2022-08-19T02:35:40;49.65;;;31.75;;
8819;SDS011;4446;50.876;4.736;2022-08-19T02:38:08;42.85;;;28.77;;
8819;SDS011;4446;50.876;4.736;2022-08-19T02:40:53;47.20;;;32.58;;
8819;SDS011;4446;50.876;4.736;2022-08-19T02:43:22;50.17;;;30.83;;
8819;SDS011;4446;50.876;4.736;2022-08-19T02:45:52;46.70;;;30.30;;
8819;SDS011;4446;50.876;4.736;2022-08-19T02:48:19;54.58;;;34.25;;
8819;SDS011;4446;50.876;4.736;2022-08-19T02:50:49;51.80;;;32.92;;
8819;SDS011;4446;50.876;4.736;2022-08-19T02:53:21;47.92;;;33.10;;
8819;SDS011;4446;50.876;4.736;2022-08-19T02:55:49;51.15;;;31.45;;
8819;SDS011;4446;50.876;4.736;2022-08-19T02:58:16;50.83;;;30.80;;
8819;SDS011;4446;50.876;4.736;2022-08-19T03:00:44;52.58;;;34.17;;
8819;SDS011;4446;50.876;4.736;2022-08-19T03:03:14;49.92;;;32.25;;
8819;SDS011;4446;50.876;4.736;2022-08-19T03:05:42;56.03;;;34.65;;
8819;SDS011;4446;50.876;4.736;2022-08-19T03:08:10;50.92;;;32.20;;
8819;SDS011;4446;50.876;4.736;2022-08-19T03:10:42;51.80;;;32.40;;
8819;SDS011;4446;50.876;4.736;2022-08-19T03:13:11;49.67;;;32.10;;
8819;SDS011;4446;50.876;4.736;2022-08-19T03:15:40;51.28;;;33.67;;
8819;SDS011;4446;50.876;4.736;2022-08-19T03:18:08;52.72;;;33.20;;
8819;SDS011;4446;50.876;4.736;2022-08-19T03:20:41;49.40;;;32.85;;
8819;SDS011;4446;50.876;4.736;2022-08-19T03:23:09;47.63;;;31.52;;
8819;SDS011;4446;50.876;4.736;2022-08-19T03:25:38;48.42;;;30.58;;
8819;SDS011;4446;50.876;4.736;2022-08-19T03:28:08;47.13;;;29.70;;
8819;SDS011;4446;50.876;4.736;2022-08-19T03:30:36;44.70;;;29.73;;
8819;SDS011;4446;50.876;4.736;2022-08-19T03:33:04;51.47;;;31.20;;
8819;SDS011;4446;50.876;4.736;2022-08-19T03:35:34;54.70;;;32.45;;
8819;SDS011;4446;50.876;4.736;2022-08-19T03:38:03;46.47;;;30.35;;
8819;SDS011;4446;50.876;4.736;2022-08-19T03:40:30;44.60;;;28.80;;
8819;SDS011;4446;50.876;4.736;2022-08-19T03:42:57;51.78;;;31.75;;
8819;SDS011;4446;50.876;4.736;2022-08-19T03:45:24;50.15;;;32.45;;
8819;SDS011;4446;50.876;4.736;2022-08-19T03:47:52;46.58;;;30.58;;
8819;SDS011;4446;50.876;4.736;2022-08-19T03:50:19;50.47;;;31.08;;
8819;SDS011;4446;50.876;4.736;2022-08-19T03:52:47;51.60;;;32.33;;
8819;SDS011;4446;50.876;4.736;2022-08-19T03:55:17;45.90;;;29.42;;
8819;SDS011;4446;50.876;4.736;2022-08-19T03:57:45;44.13;;;29.35;;
8819;SDS011;4446;50.876;4.736;2022-08-19T04:00:14;44.83;;;29.75;;
8819;SDS011;4446;50.876;4.736;2022-08-19T04:02:41;48.95;;;31.67;;
8819;SDS011;4446;50.876;4.736;2022-08-19T04:05:08;50.03;;;30.33;;
8819;SDS011;4446;50.876;4.736;2022-08-19T04:07:36;42.95;;;28.50;;
8819;SDS011;4446;50.876;4.736;2022-08-19T04:10:03;46.75;;;30.50;;
8819;SDS011;4446;50.876;4.736;2022-08-19T04:12:32;47.78;;;30.77;;
8819;SDS011;4446;50.876;4.736;2022-08-19T04:14:59;43.33;;;28.92;;
8819;SDS011;4446;50.876;4.736;2022-08-19T04:17:26;42.47;;;28.02;;
8819;SDS011;4446;50.876;4.736;2022-08-19T04:19:53;43.80;;;29.35;;
8819;SDS011;4446;50.876;4.736;2022-08-19T04:22:20;45.97;;;28.50;;
8819;SDS011;4446;50.876;4.736;2022-08-19T04:24:47;43.15;;;26.85;;
8819;SDS011;4446;50.876;4.736;2022-08-19T04:27:14;43.08;;;28.42;;
8819;SDS011;4446;50.876;4.736;2022-08-19T04:29:42;39.92;;;25.23;;
8819;SDS011;4446;50.876;4.736;2022-08-19T04:32:11;42.45;;;27.15;;
8819;SDS011;4446;50.876;4.736;2022-08-19T04:34:40;39.22;;;25.50;;
8819;SDS011;4446;50.876;4.736;2022-08-19T04:37:08;39.53;;;26.08;;
8819;SDS011;4446;50.876;4.736;2022-08-19T04:39:38;39.60;;;26.42;;
8819;SDS011;4446;50.876;4.736;2022-08-19T04:42:23;44.10;;;26.98;;
8819;SDS011;4446;50.876;4.736;2022-08-19T04:45:07;41.30;;;26.45;;
8819;SDS011;4446;50.876;4.736;2022-08-19T04:47:37;40.58;;;24.95;;
8819;SDS011;4446;50.876;4.736;2022-08-19T04:50:05;36.85;;;24.30;;
8819;SDS011;4446;50.876;4.736;2022-08-19T04:52:34;38.42;;;24.38;;
8819;SDS011;4446;50.876;4.736;2022-08-19T04:55:01;41.15;;;26.10;;
8819;SDS011;4446;50.876;4.736;2022-08-19T04:57:28;40.50;;;25.92;;
8819;SDS011;4446;50.876;4.736;2022-08-19T04:59:55;36.90;;;24.38;;
8819;SDS011;4446;50.876;4.736;2022-08-19T05:02:24;39.53;;;25.00;;
8819;SDS011;4446;50.876;4.736;2022-08-19T05:04:51;35.97;;;24.02;;
8819;SDS011;4446;50.876;4.736;2022-08-19T05:07:24;41.95;;;24.77;;
8819;SDS011;4446;50.876;4.736;2022-08-19T05:09:51;37.33;;;24.65;;
8819;SDS011;4446;50.876;4.736;2022-08-19T05:12:18;39.55;;;25.48;;
8819;SDS011;4446;50.876;4.736;2022-08-19T05:14:45;38.70;;;24.45;;
8819;SDS011;4446;50.876;4.736;2022-08-19T05:17:13;38.22;;;23.77;;
8819;SDS011;4446;50.876;4.736;2022-08-19T05:19:41;40.88;;;24.77;;
8819;SDS011;4446;50.876;4.736;2022-08-19T05:22:26;39.10;;;24.67;;
8819;SDS011;4446;50.876;4.736;2022-08-19T05:24:59;38.30;;;24.02;;
8819;SDS011;4446;50.876;4.736;2022-08-19T05:27:29;36.80;;;23.27;;
8819;SDS011;4446;50.876;4.736;2022-08-19T05:29:56;36.45;;;22.35;;
8819;SDS011;4446;50.876;4.736;2022-08-19T05:32:23;38.83;;;22.38;;
8819;SDS011;4446;50.876;4.736;2022-08-19T05:34:51;37.15;;;23.85;;
8819;SDS011;4446;50.876;4.736;2022-08-19T05:37:18;36.55;;;22.38;;
8819;SDS011;4446;50.876;4.736;2022-08-19T05:39:46;36.45;;;22.02;;
8819;SDS011;4446;50.876;4.736;2022-08-19T05:42:14;35.97;;;23.27;;
8819;SDS011;4446;50.876;4.736;2022-08-19T05:44:42;34.33;;;21.77;;
8819;SDS011;4446;50.876;4.736;2022-08-19T05:47:10;35.13;;;23.25;;
8819;SDS011;4446;50.876;4.736;2022-08-19T05:49:39;36.75;;;22.90;;
8819;SDS011;4446;50.876;4.736;2022-08-19T05:52:11;32.78;;;22.67;;
8819;SDS011;4446;50.876;4.736;2022-08-19T05:54:40;37.75;;;22.75;;
8819;SDS011;4446;50.876;4.736;2022-08-19T05:57:08;38.83;;;23.60;;
8819;SDS011;4446;50.876;4.736;2022-08-19T05:59:35;34.97;;;22.33;;
8819;SDS011;4446;50.876;4.736;2022-08-19T06:02:03;33.53;;;21.13;;
8819;SDS011;4446;50.876;4.736;2022-08-19T06:04:31;33.75;;;21.90;;
8819;SDS011;4446;50.876;4.736;2022-08-19T06:06:59;34.35;;;22.05;;
8819;SDS011;4446;50.876;4.736;2022-08-19T06:09:28;29.75;;;21.25;;
8819;SDS011;4446;50.876;4.736;2022-08-19T06:11:55;31.05;;;21.60;;
8819;SDS011;4446;50.876;4.736;2022-08-19T06:14:25;30.40;;;20.95;;
8819;SDS011;4446;50.876;4.736;2022-08-19T06:16:54;31.67;;;21.50;;
8819;SDS011;4446;50.876;4.736;2022-08-19T06:19:21;30.50;;;20.05;;
8819;SDS011;4446;50.876;4.736;2022-08-19T06:21:51;32.30;;;21.08;;
8819;SDS011;4446;50.876;4.736;2022-08-19T06:24:19;29.08;;;20.65;;
8819;SDS011;4446;50.876;4.736;2022-08-19T06:26:51;28.75;;;20.48;;
8819;SDS011;4446;50.876;4.736;2022-08-19T06:29:20;27.27;;;19.60;;
8819;SDS011;4446;50.876;4.736;2022-08-19T06:31:50;26.40;;;19.35;;
8819;SDS011;4446;50.876;4.736;2022-08-19T06:34:19;29.38;;;20.17;;
8819;SDS011;4446;50.876;4.736;2022-08-19T06:36:47;27.42;;;19.45;;
8819;SDS011;4446;50.876;4.736;2022-08-19T06:39:17;25.55;;;18.70;;
8819;SDS011;4446;50.876;4.736;2022-08-19T06:41:46;23.67;;;17.20;;
8819;SDS011;4446;50.876;4.736;2022-08-19T06:44:16;24.30;;;17.20;;
8819;SDS011;4446;50.876;4.736;2022-08-19T06:46:44;22.60;;;16.33;;
8819;SDS011;4446;50.876;4.736;2022-08-19T06:49:11;22.98;;;16.95;;
8819;SDS011;4446;50.876;4.736;2022-08-19T06:51:40;22.05;;;17.45;;
8819;SDS011;4446;50.876;4.736;2022-08-19T06:54:08;23.58;;;16.58;;
8819;SDS011;4446;50.876;4.736;2022-08-19T06:56:36;19.15;;;15.45;;
8819;SDS011;4446;50.876;4.736;2022-08-19T06:59:04;20.02;;;14.90;;
8819;SDS011;4446;50.876;4.736;2022-08-19T07:01:35;19.45;;;14.18;;
8819;SDS011;4446;50.876;4.736;2022-08-19T07:04:04;18.95;;;14.00;;
8819;SDS011;4446;50.876;4.736;2022-08-19T07:06:31;16.65;;;12.98;;
8819;SDS011;4446;50.876;4.736;2022-08-19T07:08:58;16.60;;;12.48;;
8819;SDS011;4446;50.876;4.736;2022-08-19T07:11:25;15.75;;;12.38;;
8819;SDS011;4446;50.876;4.736;2022-08-19T07:13:52;14.38;;;12.63;;
8819;SDS011;4446;50.876;4.736;2022-08-19T07:16:20;15.85;;;12.50;;
8819;SDS011;4446;50.876;4.736;2022-08-19T07:18:49;13.27;;;11.85;;
8819;SDS011;4446;50.876;4.736;2022-08-19T07:21:18;18.25;;;12.15;;
8819;SDS011;4446;50.876;4.736;2022-08-19T07:23:47;15.75;;;12.05;;
8819;SDS011;4446;50.876;4.736;2022-08-19T07:26:16;14.40;;;11.45;;
8819;SDS011;4446;50.876;4.736;2022-08-19T07:28:49;16.00;;;11.10;;
8819;SDS011;4446;50.876;4.736;2022-08-19T07:31:17;14.85;;;10.60;;
8819;SDS011;4446;50.876;4.736;2022-08-19T07:33:47;14.00;;;10.73;;
8819;SDS011;4446;50.876;4.736;2022-08-19T07:36:18;12.77;;;9.77;;
8819;SDS011;4446;50.876;4.736;2022-08-19T07:38:47;13.52;;;10.15;;
8819;SDS011;4446;50.876;4.736;2022-08-19T07:41:16;13.00;;;9.27;;
8819;SDS011;4446;50.876;4.736;2022-08-19T07:43:44;13.90;;;10.23;;
8819;SDS011;4446;50.876;4.736;2022-08-19T07:46:12;13.20;;;9.30;;
8819;SDS011;4446;50.876;4.736;2022-08-19T07:48:40;11.02;;;8.52;;
8819;SDS011;4446;50.876;4.736;2022-08-19T07:51:10;11.57;;;7.95;;
8819;SDS011;4446;50.876;4.736;2022-08-19T07:53:37;9.57;;;6.88;;
8819;SDS011;4446;50.876;4.736;2022-08-19T07:56:05;7.93;;;6.97;;
8819;SDS011;4446;50.876;4.736;2022-08-19T07:58:33;9.82;;;6.45;;
8819;SDS011;4446;50.876;4.736;2022-08-19T08:01:05;7.05;;;6.35;;
8819;SDS011;4446;50.876;4.736;2022-08-19T08:03:33;7.97;;;6.10;;
8819;SDS011;4446;50.876;4.736;2022-08-19T08:06:18;8.52;;;5.90;;
8819;SDS011;4446;50.876;4.736;2022-08-19T08:09:03;7.68;;;5.20;;
8819;SDS011;4446;50.876;4.736;2022-08-19T08:11:37;9.02;;;5.40;;
8819;SDS011;4446;50.876;4.736;2022-08-19T08:14:05;6.20;;;5.30;;
8819;SDS011;4446;50.876;4.736;2022-08-19T08:16:33;5.07;;;4.57;;
8819;SDS011;4446;50.876;4.736;2022-08-19T08:19:00;5.13;;;4.47;;
8819;SDS011;4446;50.876;4.736;2022-08-19T08:21:29;5.13;;;4.63;;
8819;SDS011;4446;50.876;4.736;2022-08-19T08:23:56;5.68;;;4.53;;
8819;SDS011;4446;50.876;4.736;2022-08-19T08:26:23;5.60;;;4.15;;
8819;SDS011;4446;50.876;4.736;2022-08-19T08:28:50;6.32;;;4.72;;
8819;SDS011;4446;50.876;4.736;2022-08-19T08:31:18;5.72;;;4.82;;
8819;SDS011;4446;50.876;4.736;2022-08-19T08:33:45;5.28;;;4.70;;
8819;SDS011;4446;50.876;4.736;2022-08-19T08:36:13;7.97;;;4.90;;
8819;SDS011;4446;50.876;4.736;2022-08-19T08:38:42;5.90;;;4.40;;
8819;SDS011;4446;50.876;4.736;2022-08-19T08:41:12;5.70;;;4.65;;
8819;SDS011;4446;50.876;4.736;2022-08-19T08:43:46;5.65;;;5.15;;
8819;SDS011;4446;50.876;4.736;2022-08-19T08:46:17;7.85;;;4.90;;
8819;SDS011;4446;50.876;4.736;2022-08-19T08:48:49;5.95;;;4.70;;
8819;SDS011;4446;50.876;4.736;2022-08-19T08:51:20;5.80;;;4.75;;
8819;SDS011;4446;50.876;4.736;2022-08-19T08:53:52;5.53;;;4.90;;
8819;SDS011;4446;50.876;4.736;2022-08-19T08:56:21;5.63;;;4.60;;
8819;SDS011;4446;50.876;4.736;2022-08-19T08:58:51;6.57;;;4.88;;
8819;SDS011;4446;50.876;4.736;2022-08-19T09:01:24;6.15;;;4.70;;
8819;SDS011;4446;50.876;4.736;2022-08-19T09:03:51;6.47;;;4.95;;
8819;SDS011;4446;50.876;4.736;2022-08-19T09:06:20;5.68;;;4.68;;
8819;SDS011;4446;50.876;4.736;2022-08-19T09:08:57;7.15;;;4.82;;
8819;SDS011;4446;50.876;4.736;2022-08-19T09:11:33;5.03;;;4.53;;
8819;SDS011;4446;50.876;4.736;2022-08-19T09:14:14;6.00;;;4.82;;
8819;SDS011;4446;50.876;4.736;2022-08-19T09:16:48;5.00;;;4.50;;
8819;SDS011;4446;50.876;4.736;2022-08-19T09:19:16;5.75;;;4.63;;
8819;SDS011;4446;50.876;4.736;2022-08-19T09:21:43;5.25;;;4.75;;
8819;SDS011;4446;50.876;4.736;2022-08-19T09:24:12;5.07;;;4.30;;
8819;SDS011;4446;50.876;4.736;2022-08-19T09:26:39;5.10;;;4.60;;
8819;SDS011;4446;50.876;4.736;2022-08-19T09:29:08;7.70;;;4.97;;
8819;SDS011;4446;50.876;4.736;2022-08-19T09:31:36;6.03;;;4.03;;
8819;SDS011;4446;50.876;4.736;2022-08-19T09:34:04;6.25;;;4.25;;
8819;SDS011;4446;50.876;4.736;2022-08-19T09:36:31;4.80;;;4.40;;
8819;SDS011;4446;50.876;4.736;2022-08-19T09:39:01;4.88;;;3.88;;
8819;SDS011;4446;50.876;4.736;2022-08-19T09:41:30;5.00;;;4.47;;
8819;SDS011;4446;50.876;4.736;2022-08-19T09:43:58;4.53;;;3.78;;
8819;SDS011;4446;50.876;4.736;2022-08-19T09:46:26;7.05;;;4.43;;
8819;SDS011;4446;50.876;4.736;2022-08-19T09:48:56;4.60;;;4.15;;
8819;SDS011;4446;50.876;4.736;2022-08-19T09:51:25;4.65;;;3.80;;
8819;SDS011;4446;50.876;4.736;2022-08-19T09:53:54;3.78;;;3.35;;
8819;SDS011;4446;50.876;4.736;2022-08-19T09:56:26;3.40;;;3.10;;
8819;SDS011;4446;50.876;4.736;2022-08-19T09:58:55;6.13;;;3.75;;
8819;SDS011;4446;50.876;4.736;2022-08-19T10:01:25;5.03;;;3.50;;
8819;SDS011;4446;50.876;4.736;2022-08-19T10:03:55;3.60;;;2.97;;
8819;SDS011;4446;50.876;4.736;2022-08-19T10:06:24;3.92;;;3.45;;
8819;SDS011;4446;50.876;4.736;2022-08-19T10:08:54;4.88;;;3.85;;
8819;SDS011;4446;50.876;4.736;2022-08-19T10:11:22;3.67;;;3.38;;
8819;SDS011;4446;50.876;4.736;2022-08-19T10:13:49;4.65;;;3.83;;
8819;SDS011;4446;50.876;4.736;2022-08-19T10:16:19;4.15;;;3.55;;
8819;SDS011;4446;50.876;4.736;2022-08-19T10:18:47;4.90;;;4.40;;
8819;SDS011;4446;50.876;4.736;2022-08-19T10:21:16;4.40;;;4.00;;
8819;SDS011;4446;50.876;4.736;2022-08-19T10:23:45;4.82;;;4.07;;
8819;SDS011;4446;50.876;4.736;2022-08-19T10:26:15;5.00;;;3.83;;
8819;SDS011;4446;50.876;4.736;2022-08-19T10:28:44;4.68;;;3.58;;
8819;SDS011;4446;50.876;4.736;2022-08-19T10:31:12;4.72;;;4.25;;
8819;SDS011;4446;50.876;4.736;2022-08-19T10:33:41;4.32;;;3.75;;
8819;SDS011;4446;50.876;4.736;2022-08-19T10:36:09;4.40;;;4.00;;
8819;SDS011;4446;50.876;4.736;2022-08-19T10:38:40;4.30;;;3.88;;
8819;SDS011;4446;50.876;4.736;2022-08-19T10:41:09;4.40;;;3.90;;
8819;SDS011;4446;50.876;4.736;2022-08-19T10:43:37;5.50;;;3.80;;
8819;SDS011;4446;50.876;4.736;2022-08-19T10:46:05;3.75;;;3.30;;
8819;SDS011;4446;50.876;4.736;2022-08-19T10:48:32;4.18;;;3.63;;
8819;SDS011;4446;50.876;4.736;2022-08-19T10:51:01;4.22;;;3.70;;
8819;SDS011;4446;50.876;4.736;2022-08-19T10:53:46;4.90;;;4.15;;
8819;SDS011;4446;50.876;4.736;2022-08-19T10:56:13;4.93;;;3.60;;
8819;SDS011;4446;50.876;4.736;2022-08-19T10:58:58;4.28;;;3.88;;
8819;SDS011;4446;50.876;4.736;2022-08-19T11:01:25;3.72;;;3.42;;
8819;SDS011;4446;50.876;4.736;2022-08-19T11:03:52;4.25;;;3.88;;
8819;SDS011;4446;50.876;4.736;2022-08-19T11:06:20;3.95;;;3.55;;
8819;SDS011;4446;50.876;4.736;2022-08-19T11:08:47;4.55;;;3.78;;
8819;SDS011;4446;50.876;4.736;2022-08-19T11:11:14;4.38;;;3.97;;
8819;SDS011;4446;50.876;4.736;2022-08-19T11:13:41;4.70;;;3.55;;
8819;SDS011;4446;50.876;4.736;2022-08-19T11:16:11;3.90;;;3.30;;
8819;SDS011;4446;50.876;4.736;2022-08-19T11:18:40;3.28;;;2.97;;
8819;SDS011;4446;50.876;4.736;2022-08-19T11:21:10;3.17;;;2.75;;
8819;SDS011;4446;50.876;4.736;2022-08-19T11:23:40;4.80;;;3.17;;
8819;SDS011;4446;50.876;4.736;2022-08-19T11:26:07;3.05;;;2.75;;
8819;SDS011;4446;50.876;4.736;2022-08-19T11:28:34;3.60;;;3.10;;
8819;SDS011;4446;50.876;4.736;2022-08-19T11:31:01;4.05;;;3.10;;
8819;SDS011;4446;50.876;4.736;2022-08-19T11:33:29;3.28;;;2.92;;
8819;SDS011;4446;50.876;4.736;2022-08-19T11:35:58;3.80;;;2.75;;
8819;SDS011;4446;50.876;4.736;2022-08-19T11:38:25;3.28;;;2.97;;
8819;SDS011;4446;50.876;4.736;2022-08-19T11:40:57;3.42;;;2.90;;
8819;SDS011;4446;50.876;4.736;2022-08-19T11:43:27;3.80;;;3.50;;
8819;SDS011;4446;50.876;4.736;2022-08-19T11:45:55;4.25;;;3.58;;
8819;SDS011;4446;50.876;4.736;2022-08-19T11:48:22;4.10;;;3.58;;
8819;SDS011;4446;50.876;4.736;2022-08-19T11:50:51;4.20;;;3.38;;
8819;SDS011;4446;50.876;4.736;2022-08-19T11:53:20;5.70;;;3.20;;
8819;SDS011;4446;50.876;4.736;2022-08-19T11:55:47;3.97;;;3.42;;
8819;SDS011;4446;50.876;4.736;2022-08-19T11:58:17;5.95;;;3.80;;
8819;SDS011;4446;50.876;4.736;2022-08-19T12:00:44;4.10;;;3.70;;
8819;SDS011;4446;50.876;4.736;2022-08-19T12:03:11;4.35;;;3.90;;
8819;SDS011;4446;50.876;4.736;2022-08-19T12:05:39;4.95;;;4.00;;
8819;SDS011;4446;50.876;4.736;2022-08-19T12:08:07;4.95;;;4.45;;
8819;SDS011;4446;50.876;4.736;2022-08-19T12:10:35;3.67;;;3.38;;
8819;SDS011;4446;50.876;4.736;2022-08-19T12:13:02;5.93;;;4.18;;
8819;SDS011;4446;50.876;4.736;2022-08-19T12:15:31;5.00;;;4.50;;
8819;SDS011;4446;50.876;4.736;2022-08-19T12:18:02;5.40;;;4.90;;
8819;SDS011;4446;50.876;4.736;2022-08-19T12:20:30;5.90;;;5.30;;
8819;SDS011;4446;50.876;4.736;2022-08-19T12:22:57;5.45;;;4.95;;
8819;SDS011;4446;50.876;4.736;2022-08-19T12:25:24;6.93;;;5.68;;
8819;SDS011;4446;50.876;4.736;2022-08-19T12:27:51;6.03;;;5.43;;
8819;SDS011;4446;50.876;4.736;2022-08-19T12:30:20;6.10;;;5.50;;
8819;SDS011;4446;50.876;4.736;2022-08-19T12:32:48;7.18;;;6.07;;
8819;SDS011;4446;50.876;4.736;2022-08-19T12:35:16;7.13;;;5.50;;
8819;SDS011;4446;50.876;4.736;2022-08-19T12:37:45;6.28;;;5.70;;
8819;SDS011;4446;50.876;4.736;2022-08-19T12:40:12;5.82;;;4.70;;
8819;SDS011;4446;50.876;4.736;2022-08-19T12:42:40;6.30;;;5.70;;
8819;SDS011;4446;50.876;4.736;2022-08-19T12:45:08;6.25;;;5.65;;
8819;SDS011;4446;50.876;4.736;2022-08-19T12:47:36;6.07;;;5.50;;
8819;SDS011;4446;50.876;4.736;2022-08-19T12:50:05;6.90;;;5.90;;
8819;SDS011;4446;50.876;4.736;2022-08-19T12:52:34;5.93;;;4.90;;
8819;SDS011;4446;50.876;4.736;2022-08-19T12:55:03;6.63;;;5.45;;
8819;SDS011;4446;50.876;4.736;2022-08-19T12:57:32;5.68;;;5.18;;
8819;SDS011;4446;50.876;4.736;2022-08-19T13:00:02;5.63;;;4.93;;
8819;SDS011;4446;50.876;4.736;2022-08-19T13:02:33;5.60;;;5.10;;
8819;SDS011;4446;50.876;4.736;2022-08-19T13:05:01;5.90;;;5.30;;
8819;SDS011;4446;50.876;4.736;2022-08-19T13:07:30;5.88;;;5.38;;
8819;SDS011;4446;50.876;4.736;2022-08-19T13:09:58;5.55;;;4.63;;
8819;SDS011;4446;50.876;4.736;2022-08-19T13:12:25;6.50;;;5.38;;
8819;SDS011;4446;50.876;4.736;2022-08-19T13:14:52;5.00;;;4.53;;
8819;SDS011;4446;50.876;4.736;2022-08-19T13:17:21;5.65;;;5.15;;
8819;SDS011;4446;50.876;4.736;2022-08-19T13:19:48;5.28;;;4.78;;
8819;SDS011;4446;50.876;4.736;2022-08-19T13:22:15;5.07;;;4.50;;
8819;SDS011;4446;50.876;4.736;2022-08-19T13:24:44;4.78;;;4.35;;
8819;SDS011;4446;50.876;4.736;2022-08-19T13:27:11;4.07;;;3.63;;
8819;SDS011;4446;50.876;4.736;2022-08-19T13:29:39;4.72;;;4.32;;
8819;SDS011;4446;50.876;4.736;2022-08-19T13:32:24;4.40;;;4.07;;
8819;SDS011;4446;50.876;4.736;2022-08-19T13:35:08;5.00;;;4.60;;
8819;SDS011;4446;50.876;4.736;2022-08-19T13:37:35;5.57;;;4.78;;
8819;SDS011;4446;50.876;4.736;2022-08-19T13:40:10;4.80;;;4.40;;
8819;SDS011;4446;50.876;4.736;2022-08-19T13:42:42;4.13;;;3.72;;
8819;SDS011;4446;50.876;4.736;2022-08-19T13:45:12;3.58;;;3.28;;
8819;SDS011;4446;50.876;4.736;2022-08-19T13:47:41;3.75;;;3.17;;
8819;SDS011;4446;50.876;4.736;2022-08-19T13:50:10;3.22;;;2.70;;
8819;SDS011;4446;50.876;4.736;2022-08-19T13:52:38;3.00;;;2.80;;
8819;SDS011;4446;50.876;4.736;2022-08-19T13:55:06;3.00;;;2.80;;
8819;SDS011;4446;50.876;4.736;2022-08-19T13:57:35;3.58;;;2.88;;
8819;SDS011;4446;50.876;4.736;2022-08-19T14:00:06;3.10;;;2.80;;
8819;SDS011;4446;50.876;4.736;2022-08-19T14:02:35;2.17;;;2.00;;
8819;SDS011;4446;50.876;4.736;2022-08-19T14:05:04;2.28;;;2.00;;
8819;SDS011;4446;50.876;4.736;2022-08-19T14:07:32;2.05;;;1.88;;
8819;SDS011;4446;50.876;4.736;2022-08-19T14:10:00;2.03;;;1.85;;
8819;SDS011;4446;50.876;4.736;2022-08-19T14:12:27;1.92;;;1.65;;
8819;SDS011;4446;50.876;4.736;2022-08-19T14:14:55;2.20;;;1.83;;
8819;SDS011;4446;50.876;4.736;2022-08-19T14:17:22;1.65;;;1.55;;
8819;SDS011;4446;50.876;4.736;2022-08-19T14:19:50;2.00;;;1.90;;
8819;SDS011;4446;50.876;4.736;2022-08-19T14:22:22;2.53;;;1.90;;
8819;SDS011;4446;50.876;4.736;2022-08-19T14:24:49;2.00;;;1.90;;
8819;SDS011;4446;50.876;4.736;2022-08-19T14:27:16;2.28;;;2.08;;
8819;SDS011;4446;50.876;4.736;2022-08-19T14:29:43;1.92;;;1.73;;
8819;SDS011;4446;50.876;4.736;2022-08-19T14:32:13;1.77;;;1.67;;
8819;SDS011;4446;50.876;4.736;2022-08-19T14:34:40;1.60;;;1.50;;
8819;SDS011;4446;50.876;4.736;2022-08-19T14:37:07;3.03;;;1.88;;
8819;SDS011;4446;50.876;4.736;2022-08-19T14:39:34;1.98;;;1.70;;
8819;SDS011;4446;50.876;4.736;2022-08-19T14:42:05;2.10;;;1.90;;
8819;SDS011;4446;50.876;4.736;2022-08-19T14:44:33;2.17;;;1.67;;
8819;SDS011;4446;50.876;4.736;2022-08-19T14:47:00;1.90;;;1.70;;
8819;SDS011;4446;50.876;4.736;2022-08-19T14:49:29;1.65;;;1.55;;
8819;SDS011;4446;50.876;4.736;2022-08-19T14:51:56;1.85;;;1.60;;
8819;SDS011;4446;50.876;4.736;2022-08-19T14:54:23;1.70;;;1.60;;
8819;SDS011;4446;50.876;4.736;2022-08-19T14:56:50;1.70;;;1.60;;
8819;SDS011;4446;50.876;4.736;2022-08-19T14:59:17;2.10;;;1.90;;
8819;SDS011;4446;50.876;4.736;2022-08-19T15:01:44;1.70;;;1.60;;
8819;SDS011;4446;50.876;4.736;2022-08-19T15:04:11;1.67;;;1.58;;
8819;SDS011;4446;50.876;4.736;2022-08-19T15:06:40;4.75;;;1.70;;
8819;SDS011;4446;50.876;4.736;2022-08-19T15:09:07;2.42;;;1.50;;
8819;SDS011;4446;50.876;4.736;2022-08-19T15:11:34;2.15;;;1.67;;